Time;durP1;ratioP1;P1;durP2;ratioP2;P2;SDS_P1;SDS_P2;PMS_P1;PMS_P2;Temp;Humidity;BMP_temperature;BMP_pressure;BME280_temperature;BME280_humidity;BME280_pressure;Samples;Min_cycle;Max_cycle;Signal;HPM_P1;HPM_P2
2023/12/07 00:02:03;;;;;;;53.10;31.20;;;;;;;-0.92;86.76;100440.84;102984;1256;139215;-68
2023/12/07 00:04:30;;;;;;;57.00;31.80;;;;;;;-0.89;86.73;100439.53;103186;1261;97785;-69
2023/12/07 00:06:57;;;;;;;55.80;32.90;;;;;;;-0.89;86.64;100438.20;103078;1256;137911;-68
2023/12/07 00:09:24;;;;;;;55.50;30.00;;;;;;;-0.91;86.70;100441.19;103108;1256;107936;-67
2023/12/07 00:11:51;;;;;;;51.80;28.50;;;;;;;-0.95;86.77;100441.98;103160;1255;97724;-68
2023/12/07 00:14:19;;;;;;;55.40;29.00;;;;;;;-0.99;87.00;100443.46;102932;1260;139720;-69
2023/12/07 00:16:45;;;;;;;53.70;29.80;;;;;;;-0.99;86.84;100444.66;103136;1256;97807;-69
2023/12/07 00:19:12;;;;;;;51.30;28.60;;;;;;;-0.97;87.03;100445.54;103027;1256;138795;-69
2023/12/07 00:21:39;;;;;;;56.20;29.70;;;;;;;-0.94;87.22;100445.23;103159;1256;107093;-69
2023/12/07 00:24:08;;;;;;;53.10;30.40;;;;;;;-0.88;87.41;100443.82;103153;1259;97865;-69
2023/12/07 00:26:35;;;;;;;55.90;31.80;;;;;;;-0.83;87.40;100447.48;103042;1260;137948;-69
2023/12/07 00:29:01;;;;;;;57.10;31.60;;;;;;;-0.83;87.24;100448.86;102488;1256;1003471;-69
2023/12/07 00:31:28;;;;;;;54.40;31.70;;;;;;;-0.83;87.16;100450.23;102222;1260;1003148;-69
2023/12/07 00:33:55;;;;;;;58.20;30.30;;;;;;;-0.87;87.20;100451.17;103110;1262;107872;-69
2023/12/07 00:36:22;;;;;;;49.50;28.40;;;;;;;-0.92;87.17;100445.44;103107;1256;97800;-69
2023/12/07 00:38:50;;;;;;;51.40;28.70;;;;;;;-0.92;87.43;100451.94;103003;1256;138768;-69
2023/12/07 00:41:17;;;;;;;52.10;28.40;;;;;;;-0.89;87.48;100448.75;103122;1256;97691;-68
2023/12/07 00:43:44;;;;;;;53.20;29.60;;;;;;;-0.84;87.69;100453.29;103042;1256;139998;-69
2023/12/07 00:46:11;;;;;;;53.00;29.70;;;;;;;-0.81;87.65;100447.86;103088;1256;105839;-68
2023/12/07 00:48:38;;;;;;;53.40;30.50;;;;;;;-0.79;87.68;100444.64;102436;1259;1004985;-68
2023/12/07 00:51:06;;;;;;;55.60;30.60;;;;;;;-0.78;87.69;100450.31;103060;1256;139079;-68
2023/12/07 00:53:33;;;;;;;60.40;31.70;;;;;;;-0.78;87.58;100443.30;103063;1259;98348;-68
2023/12/07 00:56:00;;;;;;;57.70;30.10;;;;;;;-0.76;87.77;100449.98;102270;1259;1002926;-69
2023/12/07 00:58:27;;;;;;;56.50;29.50;;;;;;;-0.77;87.55;100450.32;103117;1256;107289;-69
2023/12/07 01:00:54;;;;;;;54.20;27.60;;;;;;;-0.77;87.67;100451.17;103016;1261;139038;-70
2023/12/07 01:03:21;;;;;;;53.70;27.80;;;;;;;-0.75;87.86;100453.24;103081;1256;108338;-68
2023/12/07 01:05:48;;;;;;;56.20;30.40;;;;;;;-0.73;87.81;100452.61;103173;1259;97894;-68
2023/12/07 01:08:15;;;;;;;57.30;29.80;;;;;;;-0.70;87.87;100455.73;103216;1260;138192;-68
2023/12/07 01:10:41;;;;;;;56.70;30.50;;;;;;;-0.66;87.78;100454.44;103127;1256;107930;-68
2023/12/07 01:13:08;;;;;;;59.90;31.50;;;;;;;-0.65;87.83;100455.14;103122;1256;138419;-68
2023/12/07 01:15:35;;;;;;;57.00;30.80;;;;;;;-0.66;87.72;100451.55;102387;1256;1003328;-68
2023/12/07 01:18:03;;;;;;;58.20;29.40;;;;;;;-0.70;87.91;100453.70;103220;1259;97798;-67
2023/12/07 01:20:30;;;;;;;59.00;29.50;;;;;;;-0.73;87.91;100456.02;103187;1259;139556;-68
2023/12/07 01:22:57;;;;;;;58.20;28.70;;;;;;;-0.73;88.03;100454.99;103115;1256;107141;-68
2023/12/07 01:25:24;;;;;;;55.00;27.80;;;;;;;-0.71;88.14;100456.91;103063;1256;139541;-68
2023/12/07 01:27:52;;;;;;;59.50;30.00;;;;;;;-0.68;88.05;100458.86;103176;1257;107777;-67
2023/12/07 01:30:19;;;;;;;61.80;30.30;;;;;;;-0.64;88.34;100458.06;103210;1256;97713;-68
2023/12/07 01:32:46;;;;;;;56.70;30.80;;;;;;;-0.61;88.23;100456.91;103113;1260;137974;-69
2023/12/07 01:35:13;;;;;;;60.50;31.80;;;;;;;-0.60;88.30;100456.06;103193;1257;107871;-68
2023/12/07 01:37:40;;;;;;;64.00;30.70;;;;;;;-0.60;88.16;100456.74;102478;1263;1003024;-68
2023/12/07 01:40:10;;;;;;;62.10;29.80;;;;;;;-0.64;88.31;100454.30;103089;1257;107390;-69
2023/12/07 01:42:38;;;;;;;57.50;28.50;;;;;;;-0.65;88.57;100450.18;102334;1256;1002980;-67
2023/12/07 01:45:06;;;;;;;59.00;28.20;;;;;;;-0.69;88.59;100449.96;102318;1259;1003020;-68
2023/12/07 01:47:35;;;;;;;56.70;29.20;;;;;;;-0.68;88.75;100447.58;103666;1259;107644;-68
2023/12/07 01:54:18;;;;;;;67.70;32.10;;;;;;;-0.66;89.03;100443.17;103209;1257;109807;-68
2023/12/07 01:56:45;;;;;;;63.20;31.60;;;;;;;-0.65;89.37;100445.23;103196;1260;138177;-68
2023/12/07 01:59:13;;;;;;;68.30;29.70;;;;;;;-0.67;89.37;100442.48;102522;1256;1002612;-68
2023/12/07 02:01:40;;;;;;;63.80;29.80;;;;;;;-0.70;89.51;100443.45;103064;1256;140533;-69
2023/12/07 02:04:07;;;;;;;60.30;29.40;;;;;;;-0.70;89.52;100442.42;102365;1256;1002922;-68
2023/12/07 02:06:34;;;;;;;68.50;30.80;;;;;;;-0.69;89.78;100436.46;103134;1257;107744;-68
2023/12/07 02:09:02;;;;;;;62.10;28.60;;;;;;;-0.67;89.82;100439.23;103046;1256;140525;-68
2023/12/07 02:11:29;;;;;;;64.00;30.40;;;;;;;-0.65;89.81;100443.19;103155;1262;111880;-68
2023/12/07 02:13:57;;;;;;;72.10;31.50;;;;;;;-0.63;89.95;100438.26;102964;1256;139480;-68
2023/12/07 02:16:32;;;;;;;66.10;30.10;;;;;;;-0.61;89.92;100441.70;103184;1260;98356;-68
2023/12/07 02:19:05;;;;;;;74.00;31.90;;;;;;;-0.62;89.94;100441.52;103162;1256;138815;-69
2023/12/07 02:21:35;;;;;;;70.10;32.00;;;;;;;-0.64;89.93;100443.89;103138;1256;97687;-68
2023/12/07 02:24:04;;;;;;;62.30;30.50;;;;;;;-0.67;90.03;100442.98;101697;1256;1016378;-68
2023/12/07 02:26:35;;;;;;;61.00;29.00;;;;;;;-0.68;90.01;100444.51;103060;1260;139003;-70
2023/12/07 02:29:02;;;;;;;61.60;29.40;;;;;;;-0.67;90.23;100446.57;103220;1255;98360;-69
2023/12/07 02:31:29;;;;;;;64.50;29.60;;;;;;;-0.67;90.03;100451.86;103002;1256;138857;-69
2023/12/07 02:33:56;;;;;;;61.90;28.90;;;;;;;-0.65;90.18;100451.21;102381;1257;1002974;-69
2023/12/07 02:36:28;;;;;;;64.50;29.30;;;;;;;-0.61;90.38;100452.64;103177;1257;110587;-69
2023/12/07 02:38:57;;;;;;;62.50;28.70;;;;;;;-0.56;90.23;100452.19;103192;1257;138875;-68
2023/12/07 02:41:25;;;;;;;62.60;28.60;;;;;;;-0.53;90.34;100451.05;102465;1259;1002697;-69
2023/12/07 02:43:52;;;;;;;60.20;29.60;;;;;;;-0.49;90.38;100452.33;102337;1257;1003427;-68
2023/12/07 02:46:20;;;;;;;58.50;28.60;;;;;;;-0.47;90.11;100454.40;103181;1257;97788;-68
2023/12/07 02:48:47;;;;;;;63.90;30.20;;;;;;;-0.46;90.04;100451.00;102384;1257;1002879;-68
2023/12/07 02:51:14;;;;;;;62.70;30.60;;;;;;;-0.47;89.98;100453.05;103045;1261;139053;-68
2023/12/07 02:53:41;;;;;;;61.20;29.00;;;;;;;-0.48;89.96;100451.48;103158;1260;98338;-68
2023/12/07 02:56:09;;;;;;;61.70;28.20;;;;;;;-0.49;89.97;100454.38;103021;1256;139012;-68
2023/12/07 02:58:36;;;;;;;51.00;25.80;;;;;;;-0.49;90.05;100452.32;103505;1260;97803;-68
2023/12/07 03:01:03;;;;;;;54.90;26.00;;;;;;;-0.48;89.96;100453.54;103092;1257;138680;-68
2023/12/07 03:03:29;;;;;;;56.10;27.30;;;;;;;-0.44;90.05;100452.73;103115;1256;107325;-68
2023/12/07 03:05:56;;;;;;;57.10;26.70;;;;;;;-0.41;89.93;100450.90;103155;1257;97884;-67
2023/12/07 03:08:23;;;;;;;56.70;26.60;;;;;;;-0.39;89.83;100453.66;103040;1262;138389;-67
2023/12/07 03:10:51;;;;;;;60.70;28.70;;;;;;;-0.39;89.77;100447.00;101436;1258;2003283;-67
2023/12/07 03:13:18;;;;;;;56.90;28.00;;;;;;;-0.38;89.88;100444.95;101899;1256;2002992;-67
2023/12/07 03:15:44;;;;;;;57.10;28.40;;;;;;;-0.36;89.81;100445.50;103180;1256;108190;-67
2023/12/07 03:18:11;;;;;;;57.10;27.70;;;;;;;-0.39;89.66;100444.60;103251;1256;97887;-67
2023/12/07 03:20:38;;;;;;;58.00;27.20;;;;;;;-0.41;89.63;100445.60;103124;1260;139205;-67
2023/12/07 03:23:05;;;;;;;57.30;27.20;;;;;;;-0.44;89.82;100444.37;103230;1258;97781;-68
2023/12/07 03:25:32;;;;;;;55.20;26.60;;;;;;;-0.45;89.94;100448.61;100114;1257;2003748;-68
2023/12/07 03:27:59;;;;;;;59.10;26.90;;;;;;;-0.45;90.11;100449.98;102453;1259;1002655;-67
2023/12/07 03:30:26;;;;;;;52.50;25.70;;;;;;;-0.45;89.97;100448.11;103205;1258;97805;-67
2023/12/07 03:32:53;;;;;;;57.50;26.60;;;;;;;-0.42;89.99;100454.63;103074;1256;138845;-67
2023/12/07 03:35:20;;;;;;;54.90;24.40;;;;;;;-0.42;90.09;100454.98;102011;1257;2002859;-68
2023/12/07 03:37:47;;;;;;;54.10;26.00;;;;;;;-0.41;90.07;100454.32;102472;1256;1003718;-68
2023/12/07 03:40:14;;;;;;;51.60;26.20;;;;;;;-0.40;89.99;100455.69;103165;1256;109132;-68
2023/12/07 03:42:41;;;;;;;49.40;25.50;;;;;;;-0.38;89.86;100455.89;103508;1260;97810;-67
2023/12/07 03:45:22;;;;;;;53.80;27.50;;;;;;;-0.36;90.00;100459.19;103278;1260;108430;-68
2023/12/07 03:47:49;;;;;;;52.00;28.00;;;;;;;-0.36;89.87;100457.99;103209;1260;97872;-67
2023/12/07 03:50:16;;;;;;;52.20;25.90;;;;;;;-0.39;89.81;100455.20;100150;1257;2002953;-67
2023/12/07 03:52:43;;;;;;;56.00;26.60;;;;;;;-0.41;89.69;100458.75;103136;1257;107862;-68
2023/12/07 03:55:11;;;;;;;48.40;25.10;;;;;;;-0.40;89.91;100459.27;103047;1259;139293;-68
2023/12/07 03:57:38;;;;;;;46.70;25.00;;;;;;;-0.39;89.91;100461.34;102342;1260;1003787;-68
2023/12/07 04:00:09;;;;;;;51.60;25.80;;;;;;;-0.37;90.14;100462.58;103200;1258;99482;-69
2023/12/07 04:02:37;;;;;;;50.10;24.60;;;;;;;-0.35;90.05;100462.47;103358;1259;138704;-68
2023/12/07 04:05:04;;;;;;;46.70;24.80;;;;;;;-0.33;90.00;100465.05;102998;1262;108775;-68
2023/12/07 04:07:31;;;;;;;48.40;25.40;;;;;;;-0.30;89.93;100459.63;103019;1259;138905;-68
2023/12/07 04:09:59;;;;;;;50.10;26.60;;;;;;;-0.25;90.14;100462.25;103189;1260;108595;-68
2023/12/07 04:12:26;;;;;;;53.70;27.40;;;;;;;-0.22;90.00;100460.91;102379;1260;1002491;-69
2023/12/07 04:14:53;;;;;;;54.30;26.90;;;;;;;-0.23;89.91;100456.13;101571;1257;1003223;-68
2023/12/07 04:17:21;;;;;;;52.60;25.00;;;;;;;-0.23;89.85;100462.79;103152;1257;106749;-68
2023/12/07 04:19:48;;;;;;;49.40;25.40;;;;;;;-0.22;89.87;100458.01;103301;1260;140521;-69
2023/12/07 04:22:15;;;;;;;44.60;23.60;;;;;;;-0.23;89.74;100460.23;103161;1259;106914;-68
2023/12/07 04:24:42;;;;;;;51.20;23.40;;;;;;;-0.22;89.71;100456.99;102460;1260;1002955;-68
2023/12/07 04:27:08;;;;;;;46.00;23.20;;;;;;;-0.21;89.73;100454.77;103003;1258;139004;-68
2023/12/07 04:29:35;;;;;;;46.20;24.10;;;;;;;-0.20;89.72;100455.48;102344;1260;1002974;-68
2023/12/07 04:32:03;;;;;;;48.40;26.30;;;;;;;-0.20;89.82;100452.06;103055;1257;138516;-70
2023/12/07 04:34:30;;;;;;;52.60;26.20;;;;;;;-0.20;89.69;100452.06;103161;1260;107919;-69
2023/12/07 04:36:57;;;;;;;52.20;27.00;;;;;;;-0.18;89.82;100456.71;102434;1261;1003229;-69
2023/12/07 04:39:24;;;;;;;51.20;26.20;;;;;;;-0.19;89.89;100456.52;103121;1260;111109;-68
2023/12/07 04:41:51;;;;;;;48.30;24.00;;;;;;;-0.19;89.87;100457.88;102972;1259;107649;-69
2023/12/07 04:44:19;;;;;;;51.50;26.10;;;;;;;-0.20;89.85;100457.52;103030;1259;140861;-67
2023/12/07 04:46:46;;;;;;;47.70;24.20;;;;;;;-0.23;89.77;100459.54;103204;1260;108231;-68
2023/12/07 04:49:12;;;;;;;50.00;24.30;;;;;;;-0.24;90.08;100457.65;103014;1259;138957;-68
2023/12/07 04:51:41;;;;;;;51.00;25.60;;;;;;;-0.22;89.96;100457.84;102401;1261;1002927;-69
2023/12/07 04:54:09;;;;;;;49.70;24.80;;;;;;;-0.20;89.88;100458.04;102318;1269;1003307;-69
2023/12/07 04:56:45;;;;;;;51.40;26.00;;;;;;;-0.19;89.92;100457.56;102335;1260;1002648;-68
2023/12/07 04:59:12;;;;;;;52.80;26.30;;;;;;;-0.19;89.80;100457.72;103114;1257;107053;-69
2023/12/07 05:01:39;;;;;;;48.80;25.60;;;;;;;-0.20;89.81;100458.20;103043;1260;138137;-69
2023/12/07 05:04:07;;;;;;;49.00;26.20;;;;;;;-0.21;89.84;100464.02;103182;1254;110781;-69
2023/12/07 05:06:36;;;;;;;48.00;25.10;;;;;;;-0.23;89.88;100462.61;103177;1259;107130;-69
2023/12/07 05:09:03;;;;;;;49.00;25.70;;;;;;;-0.24;89.99;100463.29;103020;1258;138882;-69
2023/12/07 05:11:31;;;;;;;50.40;24.70;;;;;;;-0.23;90.11;100463.13;103123;1260;106848;-68
2023/12/07 05:13:58;;;;;;;49.10;24.40;;;;;;;-0.23;90.04;100463.30;103110;1257;138821;-68
2023/12/07 05:16:25;;;;;;;45.60;23.40;;;;;;;-0.21;89.99;100470.84;103219;1261;110821;-67
2023/12/07 05:18:52;;;;;;;48.10;24.10;;;;;;;-0.20;89.93;100469.16;103148;1260;108366;-66
2023/12/07 05:21:19;;;;;;;43.00;23.40;;;;;;;-0.16;90.19;100470.95;103089;1256;138479;-68
2023/12/07 05:23:46;;;;;;;48.60;25.30;;;;;;;-0.12;90.10;100473.04;103382;1260;1002992;-68
2023/12/07 05:26:13;;;;;;;50.30;25.00;;;;;;;-0.07;90.17;100472.08;103077;1258;138727;-69
2023/12/07 05:28:40;;;;;;;49.20;26.80;;;;;;;-0.04;89.90;100473.66;103262;1260;110743;-69
2023/12/07 05:31:07;;;;;;;51.00;25.60;;;;;;;-0.03;89.90;100474.54;103021;1257;138298;-68
2023/12/07 05:33:34;;;;;;;52.60;25.80;;;;;;;-0.02;89.59;100478.46;103166;1260;97814;-68
2023/12/07 05:36:03;;;;;;;48.50;24.70;;;;;;;-0.06;89.70;100477.23;102466;1259;1003451;-69
2023/12/07 05:38:30;;;;;;;49.00;24.30;;;;;;;-0.07;89.63;100477.73;103320;1258;141301;-69
2023/12/07 05:40:58;;;;;;;46.70;23.70;;;;;;;-0.08;89.77;100482.16;103273;1254;111608;-68
2023/12/07 05:43:25;;;;;;;44.00;23.50;;;;;;;-0.08;89.62;100481.81;103151;1257;139341;-68
2023/12/07 05:45:52;;;;;;;45.60;24.50;;;;;;;-0.10;89.58;100483.33;102522;1258;1003463;-68
2023/12/07 05:48:19;;;;;;;43.50;23.20;;;;;;;-0.09;89.70;100483.34;103219;1260;108661;-68
2023/12/07 05:50:46;;;;;;;46.40;23.60;;;;;;;-0.08;89.79;100484.21;103033;1260;139622;-67
2023/12/07 05:53:13;;;;;;;45.60;23.50;;;;;;;-0.07;89.79;100484.05;102492;1260;1002820;-67
2023/12/07 05:55:41;;;;;;;47.10;23.70;;;;;;;-0.04;89.82;100483.06;103090;1254;139084;-68
2023/12/07 05:58:08;;;;;;;46.10;25.00;;;;;;;-0.03;89.70;100479.84;103288;1258;97788;-68
2023/12/07 06:00:35;;;;;;;49.90;26.50;;;;;;;-0.01;89.72;100483.96;102377;1257;1002946;-67
2023/12/07 06:03:02;;;;;;;43.90;25.00;;;;;;;-0.03;89.57;100487.18;103058;1257;138500;-67
2023/12/07 06:05:30;;;;;;;48.10;24.80;;;;;;;-0.06;89.72;100495.18;103155;1257;111136;-68
2023/12/07 06:07:56;;;;;;;40.40;22.60;;;;;;;-0.08;89.67;100499.93;102973;1257;138760;-68
2023/12/07 06:10:23;;;;;;;42.80;23.30;;;;;;;-0.09;89.70;100498.38;103101;1257;98335;-66
2023/12/07 06:12:50;;;;;;;44.60;23.00;;;;;;;-0.11;89.74;100496.65;103145;1258;107672;-65
2023/12/07 06:15:17;;;;;;;40.40;21.80;;;;;;;-0.10;89.86;100499.05;102995;1260;140817;-67
2023/12/07 06:17:44;;;;;;;41.20;23.60;;;;;;;-0.08;89.86;100507.29;102975;1257;112286;-66
2023/12/07 06:20:13;;;;;;;43.70;24.40;;;;;;;-0.05;89.96;100512.80;103050;1261;138132;-67
2023/12/07 06:22:40;;;;;;;43.10;24.60;;;;;;;-0.05;89.86;100517.23;102817;1257;1003343;-68
2023/12/07 06:25:08;;;;;;;43.60;24.10;;;;;;;-0.05;89.86;100518.09;103036;1260;138601;-67
2023/12/07 06:27:35;;;;;;;44.20;24.50;;;;;;;-0.08;89.78;100517.38;103852;1260;97900;-67
2023/12/07 06:30:03;;;;;;;41.20;22.80;;;;;;;-0.12;89.76;100522.61;102317;1260;1002730;-68
2023/12/07 06:32:30;;;;;;;46.30;24.20;;;;;;;-0.15;89.87;100527.36;103234;1257;139120;-68
2023/12/07 06:34:57;;;;;;;43.50;22.60;;;;;;;-0.16;89.92;100530.92;103186;1261;98318;-67
2023/12/07 06:37:24;;;;;;;40.70;21.70;;;;;;;-0.18;89.98;100529.02;102994;1257;139851;-68
2023/12/07 06:39:51;;;;;;;39.80;21.40;;;;;;;-0.16;90.16;100531.77;103800;1257;97822;-67
2023/12/07 06:42:18;;;;;;;39.10;22.20;;;;;;;-0.13;90.21;100532.86;103144;1260;112376;-67
2023/12/07 06:44:47;;;;;;;42.40;22.90;;;;;;;-0.09;90.21;100535.64;102231;1257;1002919;-67
2023/12/07 06:47:14;;;;;;;39.70;23.60;;;;;;;-0.04;90.30;100533.48;103196;1257;98364;-68
2023/12/07 06:49:40;;;;;;;44.30;24.00;;;;;;;0.00;90.14;100534.94;103093;1257;138241;-67
2023/12/07 06:52:18;;;;;;;42.00;24.40;;;;;;;0.05;90.20;100538.08;102307;1257;1003054;-67
2023/12/07 06:54:45;;;;;;;41.00;23.50;;;;;;;0.07;90.12;100537.77;103220;1257;110674;-68
2023/12/07 06:57:12;;;;;;;42.90;24.40;;;;;;;0.06;90.04;100540.48;103042;1257;138230;-68
2023/12/07 06:59:40;;;;;;;39.10;22.30;;;;;;;0.06;89.94;100540.31;103096;1257;97828;-67
2023/12/07 07:02:08;;;;;;;40.50;22.60;;;;;;;0.05;89.93;100540.30;103186;1257;139014;-64
2023/12/07 07:04:35;;;;;;;38.90;21.80;;;;;;;0.06;90.05;100543.40;103231;1257;97833;-66
2023/12/07 07:07:02;;;;;;;40.70;21.40;;;;;;;0.08;90.09;100539.66;103116;1259;139299;-67
2023/12/07 07:09:29;;;;;;;38.30;21.30;;;;;;;0.11;90.04;100541.23;102453;1260;1002776;-68
2023/12/07 07:11:56;;;;;;;35.40;21.00;;;;;;;0.15;90.22;100543.34;102436;1257;1004068;-66
2023/12/07 07:14:23;;;;;;;42.50;23.10;;;;;;;0.22;90.25;100543.12;103135;1256;138791;-68
2023/12/07 07:16:51;;;;;;;39.10;23.10;;;;;;;0.30;90.19;100544.23;103262;1260;97885;-67
2023/12/07 07:19:18;;;;;;;42.80;24.40;;;;;;;0.35;89.96;100544.48;102393;1258;1002996;-67
2023/12/07 07:21:46;;;;;;;36.60;23.70;;;;;;;0.37;89.69;100544.72;103244;1257;108329;-68
2023/12/07 07:24:13;;;;;;;41.40;24.80;;;;;;;0.37;89.68;100545.58;103435;1256;97807;-69
2023/12/07 07:26:40;;;;;;;43.40;23.90;;;;;;;0.36;89.62;100545.73;103082;1258;137684;-69
2023/12/07 07:29:07;;;;;;;39.00;22.30;;;;;;;0.29;89.52;100533.98;103148;1257;98425;-68
2023/12/07 07:31:36;;;;;;;40.70;21.20;;;;;;;0.36;89.69;100543.64;103059;1260;138758;-69
2023/12/07 07:34:05;;;;;;;35.70;21.20;;;;;;;0.37;89.60;100544.02;103207;1257;109446;-70
2023/12/07 07:36:33;;;;;;;36.80;22.80;;;;;;;0.42;89.63;100546.31;103223;1257;98336;-69
2023/12/07 07:39:00;;;;;;;41.70;25.00;;;;;;;0.48;89.67;100547.92;103051;1257;138071;-69
2023/12/07 07:41:27;;;;;;;40.80;24.80;;;;;;;0.51;89.59;100546.59;102424;1256;1003232;-69
2023/12/07 07:43:54;;;;;;;39.80;23.60;;;;;;;0.53;89.45;100543.39;103082;1260;137989;-69
2023/12/07 07:46:21;;;;;;;40.40;24.70;;;;;;;0.55;89.42;100542.23;103155;1260;107878;-70
2023/12/07 07:48:47;;;;;;;39.80;24.60;;;;;;;0.55;89.21;100543.77;103162;1260;98334;-69
2023/12/07 07:51:14;;;;;;;42.70;23.40;;;;;;;0.53;89.31;100539.08;103000;1260;138923;-70
2023/12/07 07:53:41;;;;;;;37.20;22.80;;;;;;;0.52;89.13;100537.53;103153;1257;97925;-68
2023/12/07 07:56:09;;;;;;;38.00;22.10;;;;;;;0.52;89.15;100539.24;102313;1257;1002959;-69
2023/12/07 07:58:36;;;;;;;39.20;21.80;;;;;;;0.54;89.27;100543.90;103151;1259;107600;-68
2023/12/07 08:01:04;;;;;;;36.70;23.40;;;;;;;0.58;89.08;100542.95;103072;1260;138320;-69
2023/12/07 08:03:31;;;;;;;41.20;23.10;;;;;;;0.62;89.20;100544.86;103103;1258;107811;-69
2023/12/07 08:06:00;;;;;;;42.50;25.70;;;;;;;0.67;89.15;100545.43;103064;1257;97833;-69
2023/12/07 08:08:27;;;;;;;40.20;25.40;;;;;;;0.69;88.97;100546.98;102972;1260;137743;-69
2023/12/07 08:10:54;;;;;;;43.30;26.10;;;;;;;0.69;88.90;100545.63;102854;1257;106757;-69
2023/12/07 08:13:22;;;;;;;39.60;24.00;;;;;;;0.65;88.82;100548.83;102876;1264;138366;-69
2023/12/07 08:15:49;;;;;;;38.90;23.50;;;;;;;0.66;88.90;100548.48;102334;1257;1003704;-70
2023/12/07 08:18:16;;;;;;;39.30;22.90;;;;;;;0.66;88.99;100548.15;102965;1257;98047;-69
2023/12/07 08:20:43;;;;;;;38.40;22.30;;;;;;;0.71;88.98;100552.66;102963;1260;138413;-69
2023/12/07 08:23:11;;;;;;;38.70;23.80;;;;;;;0.76;88.94;100552.40;103121;1260;107913;-69
2023/12/07 08:25:39;;;;;;;37.90;23.50;;;;;;;0.80;88.80;100555.86;103041;1257;138108;-69
2023/12/07 08:28:09;;;;;;;40.90;24.90;;;;;;;0.84;88.73;100555.56;103173;1260;107613;-70
2023/12/07 08:30:36;;;;;;;41.90;24.70;;;;;;;0.87;88.56;100557.14;103109;1260;97779;-69
2023/12/07 08:33:03;;;;;;;40.30;25.30;;;;;;;0.84;88.34;100562.60;103206;1258;138245;-69
2023/12/07 08:35:30;;;;;;;43.60;26.80;;;;;;;0.84;88.49;100564.48;103036;1260;107618;-69
2023/12/07 08:37:57;;;;;;;39.10;25.10;;;;;;;0.83;88.45;100565.84;102178;1257;1003637;-69
2023/12/07 08:40:24;;;;;;;38.20;24.90;;;;;;;0.81;88.28;100565.47;102251;1260;1002849;-68
2023/12/07 08:42:51;;;;;;;38.60;24.20;;;;;;;0.83;88.38;100569.95;102996;1257;97763;-69
2023/12/07 08:45:18;;;;;;;41.20;25.80;;;;;;;0.82;88.32;100567.88;102204;1257;1003230;-69
2023/12/07 08:47:46;;;;;;;40.30;24.40;;;;;;;0.83;88.26;100567.04;103018;1257;107047;-69
2023/12/07 08:50:13;;;;;;;34.20;23.10;;;;;;;0.82;88.13;100561.03;101442;1261;1003616;-68
2023/12/07 08:52:40;;;;;;;42.50;26.00;;;;;;;0.81;88.03;100556.73;102980;1257;107325;-68
2023/12/07 08:55:16;;;;;;;38.60;24.40;;;;;;;0.81;87.89;100557.59;102211;1260;1003315;-68
2023/12/07 08:57:44;;;;;;;39.30;25.30;;;;;;;0.78;87.87;100559.44;102452;1257;1003456;-68
2023/12/07 09:00:12;;;;;;;40.90;26.20;;;;;;;0.79;87.97;100563.73;103144;1257;107375;-69
2023/12/07 09:02:40;;;;;;;40.80;26.60;;;;;;;0.80;87.96;100561.69;103365;1256;138310;-68
2023/12/07 09:05:13;;;;;;;45.70;27.20;;;;;;;0.79;87.95;100563.21;102336;1256;1003786;-68
2023/12/07 09:07:40;;;;;;;42.80;25.80;;;;;;;0.76;88.03;100564.56;102906;1260;138281;-68
2023/12/07 09:10:09;;;;;;;41.70;26.40;;;;;;;0.76;88.12;100562.16;102996;1262;111681;-68
2023/12/07 09:12:36;;;;;;;40.90;25.20;;;;;;;0.74;87.94;100564.55;102601;1258;1003448;-68
2023/12/07 09:15:09;;;;;;;40.20;25.20;;;;;;;0.73;87.81;100563.48;102935;1256;138874;-67
2023/12/07 09:17:37;;;;;;;40.60;25.30;;;;;;;0.73;88.05;100567.44;102457;1257;1003635;-70
2023/12/07 09:20:11;;;;;;;37.80;25.20;;;;;;;0.73;87.98;100570.34;103035;1260;139503;-68
2023/12/07 09:22:39;;;;;;;42.30;24.70;;;;;;;0.74;87.95;100569.84;103347;1256;111431;-69
2023/12/07 09:25:08;;;;;;;37.40;25.40;;;;;;;0.78;88.00;100571.93;102218;1260;1003039;-69
2023/12/07 09:27:37;;;;;;;41.40;26.60;;;;;;;0.79;87.92;100573.49;102929;1257;97791;-70
2023/12/07 09:30:04;;;;;;;43.50;26.70;;;;;;;0.82;87.95;100568.55;103075;1257;108213;-69
2023/12/07 09:32:31;;;;;;;41.00;27.60;;;;;;;0.83;87.95;100570.29;103001;1256;138985;-69
2023/12/07 09:35:02;;;;;;;42.90;26.80;;;;;;;0.79;87.58;100569.55;102311;1257;1002985;-70
2023/12/07 09:37:29;;;;;;;43.50;27.10;;;;;;;0.74;87.22;100569.48;102916;1257;139541;-69
2023/12/07 09:39:56;;;;;;;40.30;26.20;;;;;;;0.68;87.30;100566.31;103031;1256;97806;-67
2023/12/07 09:42:23;;;;;;;40.00;26.10;;;;;;;0.65;87.60;100565.08;103021;1258;108521;-69
2023/12/07 09:45:00;;;;;;;43.50;26.80;;;;;;;0.65;87.65;100562.52;102923;1257;138807;-69
2023/12/07 09:47:29;;;;;;;41.40;26.70;;;;;;;0.67;87.88;100556.21;103069;1260;110754;-69
2023/12/07 09:50:04;;;;;;;44.00;27.20;;;;;;;0.70;87.86;100558.63;102900;1260;138291;-68
2023/12/07 09:52:31;;;;;;;43.70;27.70;;;;;;;0.70;87.74;100560.02;103048;1260;97867;-67
2023/12/07 09:55:00;;;;;;;47.10;30.30;;;;;;;0.69;87.55;100568.39;102989;1260;139282;-70
2023/12/07 09:57:27;;;;;;;45.30;29.30;;;;;;;0.65;87.37;100572.77;103038;1260;97823;-69
2023/12/07 09:59:57;;;;;;;45.20;28.50;;;;;;;0.57;87.55;100574.08;102335;1256;1003430;-68
2023/12/07 10:02:24;;;;;;;42.10;26.90;;;;;;;0.55;87.62;100579.34;102188;1260;1003870;-68
2023/12/07 10:05:04;;;;;;;41.70;26.90;;;;;;;0.53;87.81;100574.34;103177;1256;97922;-68
2023/12/07 10:07:37;;;;;;;46.30;27.50;;;;;;;0.53;87.91;100573.83;103038;1259;138665;-69
2023/12/07 10:10:05;;;;;;;40.50;27.10;;;;;;;0.55;88.05;100574.20;103107;1257;97811;-68
2023/12/07 10:12:34;;;;;;;42.90;26.70;;;;;;;0.60;88.16;100575.48;103231;1256;112264;-69
2023/12/07 10:15:02;;;;;;;43.60;27.10;;;;;;;0.65;88.00;100575.19;102965;1261;138531;-69
2023/12/07 10:17:47;;;;;;;44.80;27.70;;;;;;;0.67;87.72;100576.58;103117;1256;97773;-69
2023/12/07 10:20:16;;;;;;;43.50;29.10;;;;;;;0.71;87.85;100575.44;103109;1255;139125;-68
2023/12/07 10:22:44;;;;;;;45.00;29.50;;;;;;;0.79;87.99;100577.77;103230;1257;97894;-67
2023/12/07 10:25:12;;;;;;;52.60;30.80;;;;;;;0.86;88.05;100574.08;103067;1260;137928;-70
2023/12/07 10:27:42;;;;;;;46.60;29.00;;;;;;;0.89;87.82;100571.22;103099;1259;107024;-69
2023/12/07 10:30:12;;;;;;;41.40;26.80;;;;;;;0.89;87.40;100570.88;103023;1258;97739;-69
2023/12/07 10:32:40;;;;;;;40.80;26.30;;;;;;;0.85;87.09;100569.10;103072;1257;138443;-70
2023/12/07 10:35:10;;;;;;;41.80;26.40;;;;;;;0.80;86.91;100569.56;103140;1254;97846;-70
2023/12/07 10:37:37;;;;;;;41.70;25.90;;;;;;;0.82;87.31;100575.06;103095;1254;138661;-69
2023/12/07 10:40:05;;;;;;;38.60;26.90;;;;;;;0.89;87.33;100573.77;102396;1254;1002845;-69
2023/12/07 10:42:38;;;;;;;44.60;28.70;;;;;;;0.93;87.06;100576.92;102862;1254;1003577;-69
2023/12/07 10:45:09;;;;;;;40.90;27.70;;;;;;;0.93;86.99;100574.70;103109;1256;138031;-69
2023/12/07 10:47:40;;;;;;;46.40;29.40;;;;;;;0.95;87.19;100574.55;103156;1260;98137;-69
2023/12/07 10:50:11;;;;;;;46.30;29.20;;;;;;;0.96;86.94;100574.05;102243;1257;1002885;-69
2023/12/07 10:52:40;;;;;;;41.80;28.50;;;;;;;0.94;86.99;100571.45;102305;1260;1002832;-68
2023/12/07 10:55:14;;;;;;;43.70;28.30;;;;;;;0.94;87.15;100568.89;103026;1257;138850;-69
2023/12/07 10:57:41;;;;;;;42.10;26.90;;;;;;;0.94;86.96;100568.04;103219;1260;107642;-69
2023/12/07 11:00:10;;;;;;;38.50;25.60;;;;;;;0.93;87.09;100568.70;103099;1256;97877;-68
2023/12/07 11:02:38;;;;;;;38.00;26.00;;;;;;;0.94;87.27;100567.35;103380;1255;138764;-69
2023/12/07 11:05:07;;;;;;;43.20;28.00;;;;;;;0.96;87.01;100569.59;102901;1256;108087;-69